KSBN/SBN METAR and TAF weather

Enter ICAO airport designator
Station Type Date Time Source
KSBN METAR 2019/10/14 04:54 UTC NOAA

KSBN 140454Z AUTO 29008KT 10SM BKN060 OVC085 08/01 A2995 RMK AO2 SLP142 T00780011 401500072


Station Type Date Time Source
KSBN Decoded METAR 2019/10/14 04:54 UTC NOAA

SOUTH BEND REGIONAL AIRPORT, IN, United States (KSBN) 41-42N 086-19W 237M
Oct 14, 2019 - 12:54 AM EDT / 2019.10.14 0454 UTC
Wind: from the WNW (290 degrees) at 9 MPH (8 KT):0
Visibility: 10 mile(s):0
Sky conditions: overcast
Temperature: 46.0 F (7.8 C)
Dew Point: 34.0 F (1.1 C)
Relative Humidity: 62%
Pressure (altimeter): 29.95 in. Hg (1014 hPa)
ob: KSBN 140454Z AUTO 29008KT 10SM BKN060 OVC085 08/01 A2995 RMK AO2 SLP142 T00780011 401500072
cycle: 5

Station Type Date Time Source
KSBN TAF 2019/10/14 06:21 UTC NOAA

TAF KSBN 140520Z 1406/1506 27010KT P6SM BKN060
FM142200 15004KT P6SM FEW250

Example: see airport list